Time;durP1;ratioP1;P1;durP2;ratioP2;P2;SDS_P1;SDS_P2;PMS_P1;PMS_P2;Temp;Humidity;BMP_temperature;BMP_pressure;BME280_temperature;BME280_humidity;BME280_pressure;Samples;Min_cycle;Max_cycle;Signal;HPM_P1;HPM_P2
2021/03/26 00:02:01;;;;;;;20.83;10.47;;;1.20;81.60;;;;;;5046073;28;20192;-78
2021/03/26 00:04:27;;;;;;;14.70;10.43;;;1.20;81.70;;;;;;5079266;28;20195;-77
2021/03/26 00:06:53;;;;;;;20.17;9.43;;;1.20;81.50;;;;;;5051593;28;20661;-78
2021/03/26 00:09:22;;;;;;;21.27;10.20;;;1.10;81.80;;;;;;5049193;28;20214;-78
2021/03/26 00:11:49;;;;;;;16.47;9.73;;;1.10;81.90;;;;;;5054160;28;20187;-78
2021/03/26 00:14:15;;;;;;;24.73;11.17;;;1.10;82.10;;;;;;5055546;28;20180;-78
2021/03/26 00:16:41;;;;;;;23.30;12.33;;;1.10;82.20;;;;;;5053862;28;20275;-78
2021/03/26 00:19:07;;;;;;;23.13;11.07;;;1.00;82.10;;;;;;5055428;28;20281;-78
2021/03/26 00:21:33;;;;;;;23.70;11.00;;;1.00;82.40;;;;;;5051334;28;20191;-79
2021/03/26 00:23:59;;;;;;;19.77;11.00;;;1.00;82.40;;;;;;5051413;28;20620;-79
2021/03/26 00:26:25;;;;;;;28.37;11.40;;;1.00;82.50;;;;;;5051337;28;20194;-78
2021/03/26 00:28:50;;;;;;;15.73;10.10;;;0.90;82.70;;;;;;5068763;28;20269;-78
2021/03/26 00:31:16;;;;;;;21.73;11.30;;;0.90;82.90;;;;;;5052450;28;20276;-78
2021/03/26 00:33:43;;;;;;;19.40;11.20;;;0.90;82.90;;;;;;5051883;28;20270;-77
2021/03/26 00:36:08;;;;;;;17.37;10.00;;;0.90;83.10;;;;;;5053685;28;20176;-78
2021/03/26 00:38:34;;;;;;;23.27;11.13;;;0.80;83.10;;;;;;5049763;28;20575;-78
2021/03/26 00:41:00;;;;;;;20.60;10.33;;;0.80;83.00;;;;;;5045833;28;20218;-78
2021/03/26 00:43:26;;;;;;;17.67;10.30;;;0.80;83.20;;;;;;5066102;28;20626;-78
2021/03/26 00:45:52;;;;;;;13.50;9.00;;;0.80;83.50;;;;;;5066059;28;20284;-78
2021/03/26 00:48:20;;;;;;;16.80;9.33;;;0.80;83.50;;;;;;5050641;28;20276;-78
2021/03/26 00:50:52;;;;;;;22.03;10.83;;;0.80;83.40;;;;;;5050674;28;20179;-78
2021/03/26 00:53:28;;;;;;;18.37;7.73;;;0.80;83.20;;;;;;5050454;28;20176;-78
2021/03/26 00:55:55;;;;;;;17.97;8.27;;;0.70;83.30;;;;;;5050838;28;20240;-78
2021/03/26 00:58:21;;;;;;;15.13;8.23;;;0.70;83.30;;;;;;5051319;28;20274;-78
2021/03/26 01:00:48;;;;;;;16.80;7.80;;;0.70;83.60;;;;;;5045184;28;20287;-78
2021/03/26 01:03:15;;;;;;;13.20;8.33;;;0.70;83.60;;;;;;5053447;28;20218;-78
2021/03/26 01:05:47;;;;;;;11.30;7.63;;;0.70;83.40;;;;;;5082548;28;20651;-79
2021/03/26 01:08:13;;;;;;;19.30;9.40;;;0.60;83.40;;;;;;5049477;28;20239;-77
2021/03/26 01:10:44;;;;;;;12.90;8.20;;;0.60;83.60;;;;;;5050257;28;20211;-77
2021/03/26 01:13:11;;;;;;;12.53;7.97;;;0.60;83.60;;;;;;5050996;28;20214;-78
2021/03/26 01:15:37;;;;;;;11.67;8.63;;;0.60;83.60;;;;;;5048754;28;20187;-78
2021/03/26 01:18:06;;;;;;;18.50;7.83;;;0.60;84.30;;;;;;5048203;28;20269;-78
2021/03/26 01:20:37;;;;;;;10.80;7.90;;;0.50;83.70;;;;;;5050583;28;20180;-78
2021/03/26 01:23:06;;;;;;;13.57;7.70;;;0.50;83.70;;;;;;5052315;28;20616;-78
2021/03/26 01:25:37;;;;;;;16.43;7.53;;;0.50;83.60;;;;;;5050597;28;20578;-78
2021/03/26 01:28:05;;;;;;;15.07;7.87;;;0.50;83.60;;;;;;5041381;28;20203;-78
2021/03/26 01:30:31;;;;;;;12.97;8.37;;;0.40;83.80;;;;;;5052044;28;20192;-78
2021/03/26 01:32:58;;;;;;;14.27;7.17;;;0.40;83.70;;;;;;5051853;28;20198;-78
2021/03/26 01:35:25;;;;;;;13.63;7.07;;;0.40;83.90;;;;;;5066978;28;20197;-77
2021/03/26 01:37:51;;;;;;;13.20;7.37;;;0.40;83.80;;;;;;5038344;28;20191;-78
2021/03/26 01:40:22;;;;;;;15.83;6.70;;;0.40;83.90;;;;;;5053992;28;20264;-78
2021/03/26 01:42:48;;;;;;;14.83;8.00;;;0.40;83.90;;;;;;5047808;28;20626;-77
2021/03/26 01:45:21;;;;;;;14.60;6.97;;;0.40;83.80;;;;;;5053799;28;20252;-80
2021/03/26 01:47:48;;;;;;;13.73;7.23;;;0.40;83.80;;;;;;5056500;28;20212;-79
2021/03/26 01:50:16;;;;;;;15.17;7.23;;;0.40;83.80;;;;;;5049869;28;20194;-76
2021/03/26 01:52:42;;;;;;;12.87;7.03;;;0.30;83.80;;;;;;5065102;28;20219;-77
2021/03/26 01:55:11;;;;;;;15.43;7.53;;;0.30;83.70;;;;;;5048654;28;20352;-77
2021/03/26 01:57:37;;;;;;;15.67;8.77;;;0.30;84.30;;;;;;5049533;28;20187;-77
2021/03/26 02:00:10;;;;;;;22.07;8.73;;;0.30;84.50;;;;;;5059504;28;20187;-78
2021/03/26 02:02:37;;;;;;;12.83;9.13;;;0.30;84.60;;;;;;5048988;28;20184;-78
2021/03/26 02:05:08;;;;;;;15.87;7.73;;;0.30;84.70;;;;;;5055317;28;20187;-78
2021/03/26 02:07:34;;;;;;;9.87;7.50;;;0.30;84.80;;;;;;5051574;28;20648;-78
2021/03/26 02:10:00;;;;;;;13.20;7.27;;;0.20;84.80;;;;;;5047792;28;20226;-78
2021/03/26 02:12:30;;;;;;;17.53;9.90;;;0.20;85.00;;;;;;5049442;28;20199;-78
2021/03/26 02:15:00;;;;;;;16.53;8.67;;;0.20;85.30;;;;;;5049415;28;20186;-78
2021/03/26 02:17:32;;;;;;;13.43;7.60;;;0.10;85.50;;;;;;5037481;28;20566;-78
2021/03/26 02:20:30;;;;;;;19.33;7.97;;;0.10;85.50;;;;;;5048181;28;20969;-78
2021/03/26 02:22:57;;;;;;;7.83;6.03;;;0.10;85.40;;;;;;5020677;28;20201;-78
2021/03/26 02:25:25;;;;;;;12.40;7.30;;;0.10;85.40;;;;;;4987536;28;20285;-78
2021/03/26 02:27:51;;;;;;;14.03;6.30;;;0.00;85.80;;;;;;5012049;28;20223;-79
2021/03/26 02:30:23;;;;;;;11.70;7.80;;;0.00;85.90;;;;;;4987134;28;20696;-78
2021/03/26 02:32:50;;;;;;;15.73;7.57;;;0.00;85.90;;;;;;5008038;28;20239;-78
2021/03/26 02:35:21;;;;;;;12.97;7.60;;;0.00;85.90;;;;;;5000948;28;20293;-78
2021/03/26 02:38:09;;;;;;;11.30;6.90;;;-0.10;85.90;;;;;;4989573;28;20193;-78
2021/03/26 02:41:05;;;;;;;10.33;6.43;;;-0.10;86.00;;;;;;4925031;29;20203;-78
2021/03/26 02:43:41;;;;;;;8.37;6.27;;;-0.10;86.00;;;;;;4910269;29;20744;-78
2021/03/26 02:46:27;;;;;;;9.93;6.87;;;-0.10;86.00;;;;;;4909523;29;20262;-78
2021/03/26 02:49:06;;;;;;;11.63;6.67;;;-0.20;86.20;;;;;;4918481;29;20212;-78
2021/03/26 02:51:41;;;;;;;14.70;7.47;;;-0.20;85.90;;;;;;4910099;29;20239;-78
2021/03/26 02:54:25;;;;;;;10.83;5.57;;;-0.20;85.80;;;;;;4910315;29;20187;-78
2021/03/26 02:56:57;;;;;;;14.13;7.23;;;-0.20;85.60;;;;;;4910010;29;20202;-78
2021/03/26 02:59:48;;;;;;;12.23;6.50;;;-0.20;85.40;;;;;;4958453;28;20638;-77
2021/03/26 03:02:15;;;;;;;13.90;7.80;;;-0.30;85.40;;;;;;4951228;28;20276;-77
2021/03/26 03:05:01;;;;;;;16.73;8.30;;;-0.30;85.50;;;;;;4961883;28;20703;-77
2021/03/26 03:07:31;;;;;;;6.57;5.90;;;-0.30;85.70;;;;;;4919491;29;20211;-77
2021/03/26 03:10:09;;;;;;;13.50;7.13;;;-0.30;86.10;;;;;;4918290;29;20735;-78
2021/03/26 03:12:40;;;;;;;13.60;6.73;;;-0.20;86.30;;;;;;4917512;29;20571;-77
2021/03/26 03:15:29;;;;;;;12.70;6.20;;;-0.30;86.20;;;;;;4911877;29;20192;-77
2021/03/26 03:18:00;;;;;;;12.03;5.90;;;-0.20;86.90;;;;;;4962258;28;20590;-79
2021/03/26 03:20:26;;;;;;;10.97;6.13;;;-0.20;86.80;;;;;;5006345;28;20192;-79
2021/03/26 03:23:13;;;;;;;16.83;8.03;;;-0.20;86.70;;;;;;5010038;28;20267;-79
2021/03/26 03:25:39;;;;;;;12.23;6.57;;;-0.20;86.60;;;;;;4993222;28;20763;-78
2021/03/26 03:28:19;;;;;;;8.37;6.23;;;-0.20;86.80;;;;;;5008004;28;20216;-78
2021/03/26 03:30:59;;;;;;;11.10;5.83;;;-0.20;86.60;;;;;;5010347;28;20222;-79
2021/03/26 03:33:47;;;;;;;8.47;6.50;;;-0.20;86.70;;;;;;5001271;28;20192;-78
2021/03/26 03:36:20;;;;;;;11.90;6.70;;;-0.20;86.60;;;;;;5004476;28;20704;-78
2021/03/26 03:38:51;;;;;;;9.17;6.30;;;-0.20;86.90;;;;;;5005948;28;20650;-78
2021/03/26 03:41:28;;;;;;;14.50;6.07;;;-0.20;86.70;;;;;;5011318;28;21103;-79
2021/03/26 03:44:19;;;;;;;14.97;8.57;;;-0.20;86.60;;;;;;5018128;28;20204;-79
2021/03/26 03:47:02;;;;;;;7.23;6.43;;;-0.20;86.50;;;;;;5052117;28;20190;-78
2021/03/26 03:50:06;;;;;;;16.40;6.77;;;-0.20;86.70;;;;;;5048756;28;20214;-78
2021/03/26 03:52:55;;;;;;;11.30;6.57;;;-0.20;86.70;;;;;;5043669;28;20289;-78
2021/03/26 03:55:26;;;;;;;16.37;9.87;;;-0.20;86.60;;;;;;5049549;28;20199;-78
2021/03/26 03:58:38;;;;;;;11.87;6.43;;;-0.20;86.60;;;;;;5033522;28;20175;-78
2021/03/26 04:01:20;;;;;;;11.57;6.70;;;-0.20;86.50;;;;;;5037519;28;20196;-78
2021/03/26 04:03:50;;;;;;;13.07;6.63;;;-0.20;86.60;;;;;;5020851;28;20191;-79
2021/03/26 04:06:20;;;;;;;14.90;6.70;;;-0.20;86.60;;;;;;5051061;28;20587;-78
2021/03/26 04:09:01;;;;;;;12.80;6.93;;;-0.20;86.60;;;;;;5050024;28;20219;-79
2021/03/26 04:11:35;;;;;;;13.27;7.87;;;-0.20;86.70;;;;;;5051210;28;20183;-78
2021/03/26 04:14:21;;;;;;;16.67;8.83;;;-0.20;86.80;;;;;;5048623;28;20223;-78
2021/03/26 04:16:54;;;;;;;13.90;7.57;;;-0.30;86.70;;;;;;5051041;28;20629;-78
2021/03/26 04:19:48;;;;;;;7.33;5.23;;;-0.30;86.70;;;;;;5032426;28;20191;-78
2021/03/26 04:22:25;;;;;;;10.03;6.13;;;-0.30;86.80;;;;;;5046018;28;20234;-78
2021/03/26 04:25:03;;;;;;;9.90;6.03;;;-0.30;87.00;;;;;;5048710;28;20577;-78
2021/03/26 04:27:35;;;;;;;9.10;6.07;;;-0.30;87.40;;;;;;5049628;28;20591;-78
2021/03/26 04:30:05;;;;;;;8.70;6.57;;;-0.30;87.40;;;;;;5049988;28;20992;-80
2021/03/26 04:32:31;;;;;;;7.37;5.67;;;-0.40;87.30;;;;;;5038159;28;20199;-81
2021/03/26 04:34:57;;;;;;;12.40;6.20;;;-0.40;87.50;;;;;;5039304;28;20188;-78
2021/03/26 04:38:00;;;;;;;10.80;6.87;;;-0.40;87.40;;;;;;5049080;28;20274;-77
2021/03/26 04:40:36;;;;;;;8.63;5.20;;;-0.40;87.30;;;;;;5047640;28;20675;-79
2021/03/26 04:43:26;;;;;;;5.10;4.43;;;-0.40;87.50;;;;;;5014042;28;20246;-79
2021/03/26 04:46:06;;;;;;;12.37;5.97;;;-0.40;87.40;;;;;;5021079;28;20647;-80
2021/03/26 04:48:37;;;;;;;11.90;6.27;;;-0.40;87.50;;;;;;5030667;28;20219;-79
2021/03/26 04:51:31;;;;;;;11.07;5.97;;;-0.40;87.60;;;;;;5026571;28;20211;-80
2021/03/26 04:54:06;;;;;;;6.23;4.57;;;-0.40;87.60;;;;;;5023804;28;20184;-79
2021/03/26 04:56:39;;;;;;;8.23;5.33;;;-0.40;87.80;;;;;;5035785;28;20199;-78
2021/03/26 04:59:07;;;;;;;7.50;5.60;;;-0.40;87.40;;;;;;5014013;28;20196;-79
2021/03/26 05:01:35;;;;;;;6.33;5.23;;;-0.30;87.60;;;;;;5016190;28;20222;-80
2021/03/26 05:04:20;;;;;;;10.07;5.73;;;-0.30;87.40;;;;;;5013930;28;20211;-80
2021/03/26 05:07:07;;;;;;;13.80;5.87;;;-0.30;87.40;;;;;;5011437;28;20188;-79
2021/03/26 05:09:37;;;;;;;6.70;5.30;;;-0.30;87.20;;;;;;5029207;28;20228;-78
2021/03/26 05:12:16;;;;;;;9.20;5.17;;;-0.20;87.10;;;;;;5030144;28;20188;-79
2021/03/26 05:15:13;;;;;;;12.00;6.67;;;-0.20;86.70;;;;;;5016051;28;20199;-79
2021/03/26 05:17:46;;;;;;;10.63;5.53;;;-0.20;86.90;;;;;;5030350;28;20223;-79
2021/03/26 05:20:49;;;;;;;4.97;3.63;;;-0.10;86.90;;;;;;5027862;28;20661;-79
2021/03/26 05:23:20;;;;;;;9.73;5.97;;;-0.10;86.90;;;;;;4956561;28;20750;-79
2021/03/26 05:25:49;;;;;;;9.60;5.73;;;-0.10;86.90;;;;;;4956641;28;20890;-80
2021/03/26 05:28:19;;;;;;;12.43;5.97;;;0.00;87.00;;;;;;4948998;28;21091;-79
2021/03/26 05:30:46;;;;;;;11.17;6.27;;;0.00;87.00;;;;;;4944995;29;20282;-79
2021/03/26 05:33:21;;;;;;;10.67;6.07;;;0.10;87.10;;;;;;4942650;29;20195;-80
2021/03/26 05:35:57;;;;;;;11.33;6.07;;;0.10;86.60;;;;;;4950221;28;21089;-79
2021/03/26 05:38:35;;;;;;;6.07;5.53;;;0.20;86.10;;;;;;4952057;28;20191;-78
2021/03/26 05:41:40;;;;;;;10.23;6.93;;;0.20;86.20;;;;;;4946662;28;20336;-78
2021/03/26 05:44:26;;;;;;;11.30;5.90;;;0.30;86.00;;;;;;4895915;29;20261;-79
2021/03/26 05:47:06;;;;;;;11.33;5.17;;;0.30;85.80;;;;;;4910436;29;20206;-79
2021/03/26 05:49:54;;;;;;;9.70;7.10;;;0.40;85.60;;;;;;4912587;29;20306;-78
2021/03/26 05:52:46;;;;;;;9.23;6.07;;;0.50;85.40;;;;;;4898647;29;21006;-77
2021/03/26 05:55:43;;;;;;;9.03;5.57;;;0.50;85.10;;;;;;4938661;29;20191;-79
2021/03/26 05:58:49;;;;;;;7.90;5.17;;;0.60;85.10;;;;;;4933040;29;20697;-78
2021/03/26 06:01:26;;;;;;;11.37;6.50;;;0.60;85.00;;;;;;4940658;29;20635;-78
2021/03/26 06:04:24;;;;;;;6.13;5.57;;;0.70;85.00;;;;;;4946866;28;20202;-81
2021/03/26 06:07:17;;;;;;;8.00;4.90;;;0.80;84.70;;;;;;4944235;29;20721;-79
2021/03/26 06:09:58;;;;;;;7.37;4.63;;;0.80;84.70;;;;;;4951102;29;20242;-76
2021/03/26 06:13:17;;;;;;;8.47;5.50;;;0.90;84.10;;;;;;4954817;28;20206;-76
2021/03/26 06:16:01;;;;;;;14.30;6.03;;;1.00;84.10;;;;;;4949489;28;20676;-76
2021/03/26 06:19:03;;;;;;;8.20;6.17;;;1.00;83.90;;;;;;4932264;29;20278;-77
2021/03/26 06:21:49;;;;;;;11.57;6.23;;;1.10;83.90;;;;;;4972510;28;20191;-76
2021/03/26 06:24:40;;;;;;;7.50;5.37;;;1.20;83.40;;;;;;5003686;28;20285;-77
2021/03/26 06:27:11;;;;;;;8.20;5.67;;;1.30;82.90;;;;;;4998990;28;20193;-74
2021/03/26 06:30:13;;;;;;;11.73;6.53;;;1.40;83.10;;;;;;4985416;28;20308;-76
2021/03/26 06:33:04;;;;;;;10.03;6.30;;;1.40;83.10;;;;;;5002990;28;20177;-76
2021/03/26 06:35:44;;;;;;;7.50;6.23;;;1.60;82.90;;;;;;5017387;28;20194;-75
2021/03/26 06:38:28;;;;;;;7.33;5.40;;;1.70;82.60;;;;;;5045971;28;20655;-77
2021/03/26 06:41:12;;;;;;;7.90;6.13;;;1.80;82.70;;;;;;5045091;28;20192;-75
2021/03/26 06:43:48;;;;;;;5.67;4.83;;;2.00;82.50;;;;;;5048244;28;20184;-80
2021/03/26 06:46:51;;;;;;;8.63;6.60;;;2.10;82.20;;;;;;5048878;28;20241;-77
2021/03/26 06:49:35;;;;;;;7.20;4.40;;;2.20;81.60;;;;;;5078592;28;20210;-82
2021/03/26 06:52:38;;;;;;;11.73;6.30;;;2.30;81.20;;;;;;5048370;28;20190;-80
2021/03/26 06:55:46;;;;;;;9.87;5.83;;;2.50;80.70;;;;;;5079909;28;20179;-95
2021/03/26 06:59:09;;;;;;;8.93;6.53;;;2.70;80.40;;;;;;5045892;28;20366;-77
2021/03/26 07:01:43;;;;;;;8.63;4.70;;;2.90;80.00;;;;;;5007621;28;20185;-79
2021/03/26 07:04:08;;;;;;;6.73;4.97;;;3.10;79.00;;;;;;5006665;28;20196;-77
2021/03/26 07:07:10;;;;;;;9.10;5.53;;;3.20;78.70;;;;;;5006384;28;20282;-79
2021/03/26 07:09:47;;;;;;;10.57;4.83;;;3.40;78.40;;;;;;4990287;28;20227;-79
2021/03/26 07:12:40;;;;;;;11.80;6.50;;;3.50;78.00;;;;;;4998023;28;20192;-80
2021/03/26 07:15:22;;;;;;;6.80;4.33;;;3.70;77.30;;;;;;4980780;28;20189;-83
2021/03/26 07:18:01;;;;;;;8.23;6.00;;;3.80;77.20;;;;;;5011792;28;20195;-81
2021/03/26 07:20:47;;;;;;;10.87;5.73;;;3.90;76.50;;;;;;5000182;28;20181;-79
2021/03/26 07:23:42;;;;;;;10.50;5.67;;;4.10;75.50;;;;;;4988902;28;20326;-77
2021/03/26 07:26:25;;;;;;;8.70;5.50;;;4.20;75.80;;;;;;4907599;29;20221;-77
2021/03/26 07:29:30;;;;;;;6.13;4.70;;;4.40;74.20;;;;;;4909668;29;20224;-77
2021/03/26 07:32:23;;;;;;;6.07;4.37;;;4.60;74.60;;;;;;4914747;29;20196;-78
2021/03/26 07:35:23;;;;;;;5.47;4.00;;;4.70;72.70;;;;;;4953451;28;20669;-78
2021/03/26 07:38:16;;;;;;;5.13;3.93;;;4.70;70.20;;;;;;4966404;28;20627;-79
2021/03/26 07:40:54;;;;;;;4.27;3.87;;;4.90;71.10;;;;;;4964930;28;20209;-76
2021/03/26 07:43:35;;;;;;;5.63;3.60;;;4.90;69.20;;;;;;4953102;28;20186;-81
2021/03/26 07:46:09;;;;;;;4.37;4.00;;;5.00;70.20;;;;;;4951463;28;20178;-77
2021/03/26 07:48:40;;;;;;;5.57;3.30;;;5.10;69.00;;;;;;4966298;28;20237;-77
2021/03/26 07:51:30;;;;;;;6.57;3.87;;;5.30;69.00;;;;;;4966318;28;20198;-78
2021/03/26 07:54:19;;;;;;;5.57;4.47;;;5.40;68.50;;;;;;4966555;28;20648;-77
2021/03/26 07:57:00;;;;;;;12.30;4.97;;;5.50;68.60;;;;;;4980387;28;20608;-77
2021/03/26 08:00:02;;;;;;;4.07;3.70;;;5.70;69.70;;;;;;4962352;28;20762;-78
2021/03/26 08:02:47;;;;;;;7.13;4.17;;;5.80;69.20;;;;;;4984554;28;20191;-78
2021/03/26 08:05:43;;;;;;;5.13;4.33;;;5.90;67.10;;;;;;5035495;28;20229;-78
2021/03/26 08:08:42;;;;;;;7.90;4.07;;;6.00;66.70;;;;;;5046768;28;20258;-77
2021/03/26 08:11:36;;;;;;;5.47;3.93;;;6.00;65.90;;;;;;5028448;28;20292;-77
2021/03/26 08:14:35;;;;;;;7.37;4.30;;;6.10;65.90;;;;;;5045931;28;20180;-78
2021/03/26 08:17:39;;;;;;;6.53;4.33;;;6.20;65.50;;;;;;5029475;28;20566;-77
2021/03/26 08:20:40;;;;;;;5.63;3.90;;;6.20;65.50;;;;;;4966110;28;20194;-78
2021/03/26 08:23:36;;;;;;;3.87;3.57;;;6.40;65.30;;;;;;4874531;29;20674;-78
2021/03/26 08:26:07;;;;;;;4.83;3.53;;;6.70;64.60;;;;;;4878183;29;20208;-79
2021/03/26 08:28:46;;;;;;;7.23;4.23;;;7.00;64.80;;;;;;4878676;29;20439;-79
2021/03/26 08:31:29;;;;;;;8.37;4.77;;;7.50;64.30;;;;;;4890082;29;20203;-78
2021/03/26 08:34:22;;;;;;;7.67;3.60;;;8.20;63.20;;;;;;4867412;29;20272;-77
2021/03/26 08:37:14;;;;;;;8.40;4.43;;;8.80;62.10;;;;;;4892979;29;20661;-77
2021/03/26 08:39:45;;;;;;;6.07;4.60;;;9.60;61.40;;;;;;4884782;29;20342;-78
2021/03/26 08:42:28;;;;;;;7.97;4.60;;;10.20;59.50;;;;;;4878704;29;20296;-78
2021/03/26 08:45:12;;;;;;;5.37;4.03;;;10.70;59.50;;;;;;4878395;29;20209;-76
2021/03/26 08:47:42;;;;;;;5.37;4.50;;;11.40;58.20;;;;;;4854560;29;20248;-77
2021/03/26 08:50:42;;;;;;;5.68;4.93;;;12.20;57.30;;;;;;4871024;29;20201;-79
2021/03/26 08:53:33;;;;;;;5.93;4.45;;;13.10;56.10;;;;;;4870772;29;20324;-77
2021/03/26 08:56:21;;;;;;;5.18;4.43;;;13.90;53.90;;;;;;4902696;28;20225;-77
2021/03/26 08:58:55;;;;;;;9.25;5.15;;;14.40;52.90;;;;;;4965765;28;20191;-77
2021/03/26 09:01:30;;;;;;;4.68;4.28;;;14.70;50.50;;;;;;5039896;28;20190;-75
2021/03/26 09:04:21;;;;;;;5.90;4.88;;;14.50;49.90;;;;;;5045331;28;20191;-78
2021/03/26 09:07:02;;;;;;;5.60;4.93;;;14.80;50.90;;;;;;5045324;28;20192;-78
2021/03/26 09:09:42;;;;;;;5.70;5.10;;;15.10;50.10;;;;;;5050087;28;20195;-76
2021/03/26 09:12:33;;;;;;;6.20;4.93;;;15.00;49.40;;;;;;5040183;28;20195;-75
2021/03/26 09:15:07;;;;;;;5.45;4.90;;;15.10;50.60;;;;;;5037908;28;20241;-76
2021/03/26 09:18:01;;;;;;;5.07;4.47;;;15.60;49.50;;;;;;5078443;28;20183;-77
2021/03/26 09:20:30;;;;;;;6.38;4.55;;;15.70;49.90;;;;;;5049439;28;20215;-77
2021/03/26 09:23:33;;;;;;;7.43;5.03;;;16.10;48.60;;;;;;5042700;28;20175;-77
2021/03/26 09:26:09;;;;;;;5.93;4.80;;;15.50;47.30;;;;;;5050356;28;20818;-77
2021/03/26 09:28:45;;;;;;;4.80;4.45;;;14.60;49.30;;;;;;5049911;28;20218;-77
2021/03/26 09:31:20;;;;;;;5.85;5.13;;;14.30;48.40;;;;;;5048268;28;20236;-77
2021/03/26 09:34:03;;;;;;;6.22;5.43;;;14.30;49.30;;;;;;5048220;28;20581;-78
2021/03/26 09:39:26;;;;;;;6.30;4.82;;;14.80;49.00;;;;;;5045891;28;20182;-78
2021/03/26 09:42:05;;;;;;;5.13;4.68;;;15.10;48.80;;;;;;5051864;28;20183;-78
2021/03/26 09:44:30;;;;;;;5.40;4.93;;;15.60;49.10;;;;;;5065226;28;20218;-80
2021/03/26 09:47:02;;;;;;;4.72;4.18;;;15.80;47.10;;;;;;5037817;28;20219;-77
2021/03/26 09:49:37;;;;;;;6.32;4.85;;;16.10;47.90;;;;;;5046322;28;20215;-78
2021/03/26 09:52:32;;;;;;;5.97;4.82;;;16.40;46.50;;;;;;5046557;28;20643;-79
2021/03/26 09:55:09;;;;;;;4.95;4.53;;;17.00;46.90;;;;;;5061835;28;20191;-79
2021/03/26 09:57:56;;;;;;;5.35;4.88;;;17.50;46.00;;;;;;5049158;28;20690;-79
2021/03/26 10:00:36;;;;;;;4.72;4.32;;;17.90;46.40;;;;;;5066029;28;20623;-78
2021/03/26 10:03:23;;;;;;;7.93;4.65;;;18.10;46.80;;;;;;5048028;28;20183;-78
2021/03/26 10:06:10;;;;;;;6.40;4.13;;;18.80;46.30;;;;;;5053528;28;20191;-78
2021/03/26 10:11:32;;;;;;;4.57;4.28;;;18.80;43.20;;;;;;5052056;28;20176;-81
2021/03/26 10:14:09;;;;;;;6.18;4.40;;;18.70;43.60;;;;;;5049621;28;20191;-80
2021/03/26 10:17:18;;;;;;;7.47;4.60;;;18.10;43.90;;;;;;5045828;28;20183;-77
2021/03/26 10:19:54;;;;;;;6.07;5.20;;;17.60;44.50;;;;;;5038272;28;20692;-76
2021/03/26 10:22:30;;;;;;;4.45;4.07;;;17.90;44.50;;;;;;5024941;28;20318;-84
2021/03/26 10:25:04;;;;;;;5.03;4.53;;;18.10;44.70;;;;;;5007251;28;20212;-80
2021/03/26 10:27:36;;;;;;;5.45;4.95;;;18.10;44.60;;;;;;5023612;28;20318;-77
2021/03/26 10:30:11;;;;;;;4.70;4.32;;;18.50;45.90;;;;;;5023335;28;20315;-76
2021/03/26 10:32:37;;;;;;;4.80;4.30;;;18.90;44.00;;;;;;5007469;28;20591;-74
2021/03/26 10:35:27;;;;;;;5.88;4.60;;;19.10;45.20;;;;;;5025273;28;20334;-85
2021/03/26 10:38:01;;;;;;;5.22;4.82;;;19.40;43.40;;;;;;5023195;28;20201;-79
2021/03/26 10:40:56;;;;;;;6.38;5.03;;;20.00;45.80;;;;;;5027053;28;20180;-79
2021/03/26 10:43:40;;;;;;;8.32;5.13;;;20.60;43.20;;;;;;5027593;28;20187;-81
2021/03/26 10:46:15;;;;;;;6.05;5.25;;;21.00;45.40;;;;;;5010024;28;20187;-82
2021/03/26 10:49:13;;;;;;;8.07;5.50;;;21.70;43.00;;;;;;4993435;28;20280;-81
2021/03/26 10:51:56;;;;;;;5.05;4.28;;;22.50;41.40;;;;;;4966300;28;20615;-81
2021/03/26 10:54:33;;;;;;;5.30;4.80;;;22.90;42.50;;;;;;4958754;28;20269;-80
2021/03/26 10:57:23;;;;;;;5.38;4.95;;;23.20;40.70;;;;;;4982655;28;20283;-81
2021/03/26 10:59:51;;;;;;;7.07;4.80;;;22.80;41.10;;;;;;4984063;28;20273;-81
2021/03/26 11:02:30;;;;;;;5.88;5.38;;;23.10;43.30;;;;;;4968866;28;20193;-81
2021/03/26 11:05:39;;;;;;;5.18;4.60;;;23.40;40.70;;;;;;4967909;28;20198;-81
2021/03/26 11:08:18;;;;;;;5.45;4.95;;;23.70;43.10;;;;;;4935293;29;20233;-82
2021/03/26 11:10:58;;;;;;;5.72;5.22;;;24.10;41.80;;;;;;4912938;29;20661;-81
2021/03/26 11:13:57;;;;;;;5.40;4.88;;;24.20;42.30;;;;;;4922878;29;20279;-82
2021/03/26 11:16:45;;;;;;;5.10;4.70;;;24.40;39.10;;;;;;4927545;29;20188;-80
2021/03/26 11:19:33;;;;;;;5.50;4.95;;;24.40;40.70;;;;;;4899091;29;20212;-81
2021/03/26 11:22:12;;;;;;;5.38;4.85;;;24.80;41.70;;;;;;4887095;29;20681;-81
2021/03/26 11:24:42;;;;;;;4.75;4.35;;;25.10;41.40;;;;;;4895840;29;20239;-81
2021/03/26 11:27:22;;;;;;;6.55;5.50;;;25.40;40.20;;;;;;4894749;29;20193;-82
2021/03/26 11:30:14;;;;;;;5.15;4.75;;;25.70;40.90;;;;;;4909714;29;20232;-82
2021/03/26 11:32:44;;;;;;;4.95;4.28;;;25.90;38.00;;;;;;4923897;29;20215;-79
2021/03/26 11:35:15;;;;;;;4.75;4.45;;;25.30;37.40;;;;;;4909841;29;20180;-81
2021/03/26 11:37:51;;;;;;;5.57;4.97;;;24.60;38.70;;;;;;4909546;29;20697;-81
2021/03/26 11:40:30;;;;;;;4.78;4.38;;;24.70;39.70;;;;;;4909706;29;20224;-82
2021/03/26 11:43:10;;;;;;;4.38;4.05;;;24.70;39.00;;;;;;4922231;28;20727;-81
2021/03/26 11:45:45;;;;;;;4.20;3.90;;;24.10;37.70;;;;;;5002768;28;20211;-80
2021/03/26 11:48:50;;;;;;;3.90;3.67;;;23.50;40.80;;;;;;5006531;28;20212;-80
2021/03/26 11:51:37;;;;;;;11.90;4.50;;;23.80;41.40;;;;;;4998594;28;20181;-80
2021/03/26 11:54:20;;;;;;;5.70;5.00;;;24.50;39.60;;;;;;4988467;28;20212;-80
2021/03/26 11:56:46;;;;;;;5.35;4.85;;;24.20;38.30;;;;;;5043813;28;20283;-80
2021/03/26 11:59:23;;;;;;;4.90;4.60;;;23.90;39.30;;;;;;5039764;28;20298;-81
2021/03/26 12:02:26;;;;;;;4.40;4.13;;;23.80;41.30;;;;;;5049446;28;20668;-80
2021/03/26 12:05:02;;;;;;;4.57;4.22;;;23.60;38.70;;;;;;5055884;28;20185;-81
2021/03/26 12:08:23;;;;;;;4.38;3.97;;;23.10;40.20;;;;;;5071552;28;20171;-81
2021/03/26 12:11:15;;;;;;;4.68;4.35;;;22.90;39.80;;;;;;4970792;28;20205;-80
2021/03/26 12:14:17;;;;;;;4.53;4.20;;;22.90;40.60;;;;;;4969825;28;20222;-81
2021/03/26 12:17:04;;;;;;;4.53;4.13;;;23.40;41.80;;;;;;4970342;28;20194;-80
2021/03/26 12:19:36;;;;;;;5.72;4.60;;;24.20;40.70;;;;;;4971355;28;20214;-81
2021/03/26 12:22:12;;;;;;;7.45;4.90;;;24.80;42.80;;;;;;4972663;28;20627;-82
2021/03/26 12:24:40;;;;;;;4.80;4.32;;;25.30;40.30;;;;;;4968731;28;21047;-81
2021/03/26 12:27:29;;;;;;;5.40;5.00;;;25.90;40.40;;;;;;4955157;28;20221;-79
2021/03/26 12:30:28;;;;;;;4.38;4.07;;;26.40;40.20;;;;;;4975939;28;20233;-81
2021/03/26 12:33:18;;;;;;;6.85;5.00;;;26.50;36.70;;;;;;4971475;28;21058;-81
2021/03/26 12:36:15;;;;;;;4.88;4.47;;;25.50;38.20;;;;;;4971254;28;20190;-81
2021/03/26 12:39:01;;;;;;;4.65;4.25;;;25.30;38.40;;;;;;4951480;29;20310;-81
2021/03/26 12:41:43;;;;;;;4.65;4.35;;;25.00;39.60;;;;;;4951748;29;20270;-81
2021/03/26 12:44:15;;;;;;;4.50;4.20;;;25.20;39.80;;;;;;4947528;29;20191;-81
2021/03/26 12:47:06;;;;;;;5.82;4.95;;;25.50;40.30;;;;;;4953291;28;20197;-81
2021/03/26 12:49:38;;;;;;;4.43;4.15;;;25.90;39.20;;;;;;4968179;28;20253;-82
2021/03/26 12:52:25;;;;;;;3.85;3.65;;;26.20;39.70;;;;;;4944910;28;20647;-81
2021/03/26 12:55:05;;;;;;;4.63;4.32;;;25.50;37.00;;;;;;4968823;28;20190;-80
2021/03/26 12:57:43;;;;;;;4.82;4.43;;;25.00;39.40;;;;;;4973123;28;20198;-79
2021/03/26 13:00:23;;;;;;;4.78;4.47;;;24.70;40.80;;;;;;4966036;28;20234;-81
2021/03/26 13:02:54;;;;;;;5.45;4.97;;;24.70;38.80;;;;;;4964977;28;20980;-80
2021/03/26 13:05:26;;;;;;;5.90;5.43;;;24.20;40.50;;;;;;4970344;28;20194;-82
2021/03/26 13:07:58;;;;;;;5.07;4.63;;;23.90;40.80;;;;;;4970898;28;20201;-87
2021/03/26 13:10:43;;;;;;;5.78;5.05;;;23.70;40.50;;;;;;4963207;28;20198;-86
2021/03/26 13:13:47;;;;;;;5.38;4.40;;;23.50;40.50;;;;;;4959860;28;20230;-87
2021/03/26 13:16:22;;;;;;;4.68;4.38;;;23.80;40.50;;;;;;4981777;28;20705;-80
2021/03/26 13:18:52;;;;;;;5.05;4.57;;;24.30;40.50;;;;;;5008620;28;20254;-78
2021/03/26 13:21:52;;;;;;;5.03;4.60;;;24.70;40.00;;;;;;5007350;28;20340;-78
2021/03/26 13:24:42;;;;;;;5.22;4.65;;;24.20;38.60;;;;;;5008555;28;20189;-74
2021/03/26 13:27:20;;;;;;;5.32;4.90;;;23.60;41.80;;;;;;5009976;28;20227;-72
2021/03/26 13:30:15;;;;;;;4.40;4.10;;;23.10;40.10;;;;;;5008602;28;20212;-72
2021/03/26 13:32:56;;;;;;;4.47;4.20;;;23.00;40.60;;;;;;5003691;28;20189;-81
2021/03/26 13:35:41;;;;;;;5.80;4.97;;;23.10;40.20;;;;;;4994245;28;20181;-79
2021/03/26 13:38:10;;;;;;;4.72;4.43;;;22.90;41.40;;;;;;5010812;28;20791;-79
2021/03/26 13:40:42;;;;;;;5.43;5.03;;;23.00;40.70;;;;;;5010122;28;20199;-80
2021/03/26 13:43:17;;;;;;;4.75;4.45;;;22.30;40.90;;;;;;5011271;28;20189;-80
2021/03/26 13:46:04;;;;;;;4.80;4.50;;;21.60;41.00;;;;;;5019039;28;20185;-80
2021/03/26 13:48:39;;;;;;;6.35;4.93;;;20.90;41.60;;;;;;5051352;28;20195;-80
2021/03/26 13:51:08;;;;;;;5.20;4.88;;;20.30;42.30;;;;;;5052807;28;20258;-81
2021/03/26 13:53:35;;;;;;;4.65;4.35;;;19.90;42.20;;;;;;5048759;28;20186;-81
2021/03/26 13:56:38;;;;;;;4.10;3.85;;;19.40;43.20;;;;;;5049773;28;20192;-81
2021/03/26 13:59:16;;;;;;;4.20;3.90;;;19.20;43.30;;;;;;5044623;28;20215;-82